sensor_id;sensor_type;location;lat;lon;timestamp;pressure;altitude;pressure_sealevel;temperature;humidity
74915;BME280;63475;45.140;-75.616;2023-07-30T00:01:51;100195.78;;;19.92;63.48
74915;BME280;63475;45.140;-75.616;2023-07-30T00:03:54;100200.03;;;19.86;63.74
74915;BME280;63475;45.140;-75.616;2023-07-30T00:05:57;100197.34;;;19.78;64.74
74915;BME280;63475;45.140;-75.616;2023-07-30T00:07:59;100201.97;;;19.70;64.92
74915;BME280;63475;45.140;-75.616;2023-07-30T00:10:02;100195.56;;;19.62;64.91
74915;BME280;63475;45.140;-75.616;2023-07-30T00:12:06;100187.81;;;19.51;64.86
74915;BME280;63475;45.140;-75.616;2023-07-30T00:14:10;100198.34;;;19.46;65.37
74915;BME280;63475;45.140;-75.616;2023-07-30T00:16:12;100203.13;;;19.36;65.45
74915;BME280;63475;45.140;-75.616;2023-07-30T00:18:15;100213.78;;;19.29;64.94
74915;BME280;63475;45.140;-75.616;2023-07-30T00:20:18;100213.34;;;19.18;65.46
74915;BME280;63475;45.140;-75.616;2023-07-30T00:22:22;100222.47;;;19.09;66.07
74915;BME280;63475;45.140;-75.616;2023-07-30T00:24:25;100222.53;;;19.01;66.19
74915;BME280;63475;45.140;-75.616;2023-07-30T00:26:27;100217.13;;;18.92;66.70
74915;BME280;63475;45.140;-75.616;2023-07-30T00:28:31;100226.59;;;18.80;67.65
74915;BME280;63475;45.140;-75.616;2023-07-30T00:30:34;100234.53;;;18.74;67.59
74915;BME280;63475;45.140;-75.616;2023-07-30T00:32:36;100237.22;;;18.65;67.98
74915;BME280;63475;45.140;-75.616;2023-07-30T00:34:45;100235.03;;;18.61;68.33
74915;BME280;63475;45.140;-75.616;2023-07-30T00:36:48;100232.19;;;18.54;67.66
74915;BME280;63475;45.140;-75.616;2023-07-30T00:38:51;100229.28;;;18.48;67.93
74915;BME280;63475;45.140;-75.616;2023-07-30T00:40:53;100231.97;;;18.40;68.47
74915;BME280;63475;45.140;-75.616;2023-07-30T00:42:56;100229.97;;;18.34;68.15
74915;BME280;63475;45.140;-75.616;2023-07-30T00:44:58;100225.91;;;18.21;68.35
74915;BME280;63475;45.140;-75.616;2023-07-30T00:47:01;100242.59;;;18.17;68.81
74915;BME280;63475;45.140;-75.616;2023-07-30T00:49:04;100243.63;;;18.08;69.68
74915;BME280;63475;45.140;-75.616;2023-07-30T00:51:07;100242.56;;;18.01;69.83
74915;BME280;63475;45.140;-75.616;2023-07-30T00:53:14;100249.44;;;17.95;70.50
74915;BME280;63475;45.140;-75.616;2023-07-30T00:55:17;100256.38;;;17.89;68.99
74915;BME280;63475;45.140;-75.616;2023-07-30T00:57:20;100252.63;;;17.82;69.51
74915;BME280;63475;45.140;-75.616;2023-07-30T00:59:23;100253.44;;;17.75;69.89
74915;BME280;63475;45.140;-75.616;2023-07-30T01:01:26;100268.25;;;17.71;70.57
74915;BME280;63475;45.140;-75.616;2023-07-30T01:03:29;100278.88;;;17.64;70.84
74915;BME280;63475;45.140;-75.616;2023-07-30T01:05:31;100282.03;;;17.59;70.83
74915;BME280;63475;45.140;-75.616;2023-07-30T01:07:35;100276.28;;;17.54;70.99
74915;BME280;63475;45.140;-75.616;2023-07-30T01:09:37;100273.91;;;17.51;71.55
74915;BME280;63475;45.140;-75.616;2023-07-30T01:11:41;100272.88;;;17.44;71.08
74915;BME280;63475;45.140;-75.616;2023-07-30T01:13:44;100269.81;;;17.39;71.76
74915;BME280;63475;45.140;-75.616;2023-07-30T01:15:49;100272.84;;;17.36;71.91
74915;BME280;63475;45.140;-75.616;2023-07-30T01:17:52;100276.84;;;17.32;72.15
74915;BME280;63475;45.140;-75.616;2023-07-30T01:19:54;100279.88;;;17.29;71.94
74915;BME280;63475;45.140;-75.616;2023-07-30T01:21:58;100276.81;;;17.24;72.58
74915;BME280;63475;45.140;-75.616;2023-07-30T01:24:00;100286.06;;;17.21;72.72
74915;BME280;63475;45.140;-75.616;2023-07-30T01:26:11;100284.69;;;17.17;72.47
74915;BME280;63475;45.140;-75.616;2023-07-30T01:28:17;100281.31;;;17.15;72.83
74915;BME280;63475;45.140;-75.616;2023-07-30T01:30:33;100289.72;;;17.12;72.67
74915;BME280;63475;45.140;-75.616;2023-07-30T01:32:38;100291.16;;;17.07;73.12
74915;BME280;63475;45.140;-75.616;2023-07-30T01:34:44;100302.25;;;17.04;73.70
74915;BME280;63475;45.140;-75.616;2023-07-30T01:36:49;100297.19;;;17.01;73.51
74915;BME280;63475;45.140;-75.616;2023-07-30T01:38:52;100300.88;;;17.00;73.04
74915;BME280;63475;45.140;-75.616;2023-07-30T01:40:55;100298.50;;;16.97;73.98
74915;BME280;63475;45.140;-75.616;2023-07-30T01:42:58;100295.13;;;16.94;73.97
74915;BME280;63475;45.140;-75.616;2023-07-30T01:45:00;100295.28;;;16.93;73.78
74915;BME280;63475;45.140;-75.616;2023-07-30T01:47:03;100290.19;;;16.90;73.72
74915;BME280;63475;45.140;-75.616;2023-07-30T01:49:06;100287.97;;;16.85;73.97
74915;BME280;63475;45.140;-75.616;2023-07-30T01:51:08;100294.88;;;16.88;74.00
74915;BME280;63475;45.140;-75.616;2023-07-30T01:53:11;100293.50;;;16.84;73.73
74915;BME280;63475;45.140;-75.616;2023-07-30T01:55:13;100288.44;;;16.81;74.13
74915;BME280;63475;45.140;-75.616;2023-07-30T01:57:16;100299.38;;;16.79;74.56
74915;BME280;63475;45.140;-75.616;2023-07-30T01:59:18;100291.47;;;16.78;74.39
74915;BME280;63475;45.140;-75.616;2023-07-30T02:01:21;100293.63;;;16.74;74.54
74915;BME280;63475;45.140;-75.616;2023-07-30T02:03:24;100290.38;;;16.71;74.48
74915;BME280;63475;45.140;-75.616;2023-07-30T02:05:27;100295.94;;;16.69;74.44
74915;BME280;63475;45.140;-75.616;2023-07-30T02:07:30;100293.53;;;16.66;74.11
74915;BME280;63475;45.140;-75.616;2023-07-30T02:09:33;100291.16;;;16.63;73.61
74915;BME280;63475;45.140;-75.616;2023-07-30T02:11:35;100300.38;;;16.60;74.39
74915;BME280;63475;45.140;-75.616;2023-07-30T02:13:38;100282.63;;;16.50;74.21
74915;BME280;63475;45.140;-75.616;2023-07-30T02:15:41;100299.34;;;16.53;74.12
74915;BME280;63475;45.140;-75.616;2023-07-30T02:17:44;100295.09;;;16.51;73.87
74915;BME280;63475;45.140;-75.616;2023-07-30T02:19:47;100306.19;;;16.48;73.80
74915;BME280;63475;45.140;-75.616;2023-07-30T02:21:50;100308.16;;;16.46;73.96
74915;BME280;63475;45.140;-75.616;2023-07-30T02:23:52;100303.41;;;16.40;73.89
74915;BME280;63475;45.140;-75.616;2023-07-30T02:25:55;100307.38;;;16.36;73.86
74915;BME280;63475;45.140;-75.616;2023-07-30T02:27:59;100314.81;;;16.34;74.14
74915;BME280;63475;45.140;-75.616;2023-07-30T02:30:03;100310.16;;;16.26;74.48
74915;BME280;63475;45.140;-75.616;2023-07-30T02:32:06;100321.09;;;16.24;74.31
74915;BME280;63475;45.140;-75.616;2023-07-30T02:34:09;100325.06;;;16.20;74.25
74915;BME280;63475;45.140;-75.616;2023-07-30T02:36:12;100320.28;;;16.14;74.28
74915;BME280;63475;45.140;-75.616;2023-07-30T02:38:14;100318.88;;;16.10;74.62
74915;BME280;63475;45.140;-75.616;2023-07-30T02:40:17;100315.94;;;16.04;74.50
74915;BME280;63475;45.140;-75.616;2023-07-30T02:42:19;100323.63;;;15.99;74.70
74915;BME280;63475;45.140;-75.616;2023-07-30T02:44:22;100332.13;;;15.94;74.45
74915;BME280;63475;45.140;-75.616;2023-07-30T02:46:24;100338.00;;;15.89;74.93
74915;BME280;63475;45.140;-75.616;2023-07-30T02:48:27;100336.88;;;15.82;74.96
74915;BME280;63475;45.140;-75.616;2023-07-30T02:50:29;100338.31;;;15.77;75.10
74915;BME280;63475;45.140;-75.616;2023-07-30T02:52:32;100336.50;;;15.68;74.93
74915;BME280;63475;45.140;-75.616;2023-07-30T02:54:35;100345.75;;;15.65;75.40
74915;BME280;63475;45.140;-75.616;2023-07-30T02:56:37;100343.94;;;15.56;75.72
74915;BME280;63475;45.140;-75.616;2023-07-30T02:58:40;100352.28;;;15.53;76.27
74915;BME280;63475;45.140;-75.616;2023-07-30T03:00:43;100349.88;;;15.50;75.95
74915;BME280;63475;45.140;-75.616;2023-07-30T03:02:45;100340.41;;;15.46;76.46
74915;BME280;63475;45.140;-75.616;2023-07-30T03:04:51;100335.50;;;15.41;76.77
74915;BME280;63475;45.140;-75.616;2023-07-30T03:06:59;100346.53;;;15.38;76.63
74915;BME280;63475;45.140;-75.616;2023-07-30T03:09:01;100349.50;;;15.35;77.15
74915;BME280;63475;45.140;-75.616;2023-07-30T03:11:04;100355.03;;;15.34;77.18
74915;BME280;63475;45.140;-75.616;2023-07-30T03:13:07;100359.00;;;15.30;76.89
74915;BME280;63475;45.140;-75.616;2023-07-30T03:15:10;100360.84;;;15.29;77.44
74915;BME280;63475;45.140;-75.616;2023-07-30T03:17:12;100353.19;;;15.24;77.36
74915;BME280;63475;45.140;-75.616;2023-07-30T03:19:15;100354.06;;;15.25;77.18
74915;BME280;63475;45.140;-75.616;2023-07-30T03:21:17;100352.66;;;15.21;77.19
74915;BME280;63475;45.140;-75.616;2023-07-30T03:23:20;100348.44;;;15.18;77.38
74915;BME280;63475;45.140;-75.616;2023-07-30T03:25:22;100349.28;;;15.19;77.43
74915;BME280;63475;45.140;-75.616;2023-07-30T03:27:25;100356.50;;;15.18;77.88
74915;BME280;63475;45.140;-75.616;2023-07-30T03:29:27;100357.75;;;15.14;77.11
74915;BME280;63475;45.140;-75.616;2023-07-30T03:31:30;100355.06;;;15.14;77.19
74915;BME280;63475;45.140;-75.616;2023-07-30T03:33:33;100362.41;;;15.12;77.12
74915;BME280;63475;45.140;-75.616;2023-07-30T03:35:36;100350.94;;;15.10;77.02
74915;BME280;63475;45.140;-75.616;2023-07-30T03:37:38;100365.22;;;15.11;77.03
74915;BME280;63475;45.140;-75.616;2023-07-30T03:39:41;100361.00;;;15.08;76.59
74915;BME280;63475;45.140;-75.616;2023-07-30T03:41:43;100358.00;;;15.02;76.45
74915;BME280;63475;45.140;-75.616;2023-07-30T03:43:46;100357.16;;;15.01;76.13
74915;BME280;63475;45.140;-75.616;2023-07-30T03:45:49;100363.00;;;14.97;76.34
74915;BME280;63475;45.140;-75.616;2023-07-30T03:47:51;100366.94;;;14.92;76.49
74915;BME280;63475;45.140;-75.616;2023-07-30T03:49:54;100366.66;;;14.86;76.44
74915;BME280;63475;45.140;-75.616;2023-07-30T03:51:56;100362.84;;;14.79;76.87
74915;BME280;63475;45.140;-75.616;2023-07-30T03:54:16;100368.81;;;14.73;77.07
74915;BME280;63475;45.140;-75.616;2023-07-30T03:56:18;100371.91;;;14.68;77.50
74915;BME280;63475;45.140;-75.616;2023-07-30T03:58:26;100374.88;;;14.65;77.44
74915;BME280;63475;45.140;-75.616;2023-07-30T04:00:45;100368.78;;;14.53;77.61
74915;BME280;63475;45.140;-75.616;2023-07-30T04:02:47;100385.16;;;14.60;78.55
74915;BME280;63475;45.140;-75.616;2023-07-30T04:04:50;100384.47;;;14.58;79.76
74915;BME280;63475;45.140;-75.616;2023-07-30T04:06:53;100381.91;;;14.56;80.31
74915;BME280;63475;45.140;-75.616;2023-07-30T04:08:55;100377.25;;;14.49;80.80
74915;BME280;63475;45.140;-75.616;2023-07-30T04:10:58;100387.41;;;14.55;79.89
74915;BME280;63475;45.140;-75.616;2023-07-30T04:13:01;100387.41;;;14.55;80.78
74915;BME280;63475;45.140;-75.616;2023-07-30T04:15:04;100383.19;;;14.52;80.82
74915;BME280;63475;45.140;-75.616;2023-07-30T04:17:07;100380.22;;;14.46;81.05
74915;BME280;63475;45.140;-75.616;2023-07-30T04:19:09;100384.59;;;14.47;80.44
74915;BME280;63475;45.140;-75.616;2023-07-30T04:21:12;100378.53;;;14.45;80.50
74915;BME280;63475;45.140;-75.616;2023-07-30T04:23:15;100386.44;;;14.46;79.80
74915;BME280;63475;45.140;-75.616;2023-07-30T04:25:18;100392.66;;;14.47;80.47
74915;BME280;63475;45.140;-75.616;2023-07-30T04:27:21;100386.84;;;14.42;80.71
74915;BME280;63475;45.140;-75.616;2023-07-30T04:29:23;100386.00;;;14.41;80.08
74915;BME280;63475;45.140;-75.616;2023-07-30T04:31:26;100388.94;;;14.38;79.57
74915;BME280;63475;45.140;-75.616;2023-07-30T04:33:29;100382.72;;;14.38;79.39
74915;BME280;63475;45.140;-75.616;2023-07-30T04:35:31;100391.78;;;14.37;80.00
74915;BME280;63475;45.140;-75.616;2023-07-30T04:37:34;100387.38;;;14.36;79.58
74915;BME280;63475;45.140;-75.616;2023-07-30T04:39:36;100381.63;;;14.31;80.05
74915;BME280;63475;45.140;-75.616;2023-07-30T04:41:39;100391.63;;;14.29;79.89
74915;BME280;63475;45.140;-75.616;2023-07-30T04:43:42;100399.50;;;14.20;79.99
74915;BME280;63475;45.140;-75.616;2023-07-30T04:45:45;100409.13;;;14.23;79.44
74915;BME280;63475;45.140;-75.616;2023-07-30T04:47:48;100403.19;;;14.19;78.90
74915;BME280;63475;45.140;-75.616;2023-07-30T04:49:50;100413.78;;;14.21;79.48
74915;BME280;63475;45.140;-75.616;2023-07-30T04:51:53;100414.63;;;14.21;78.68
74915;BME280;63475;45.140;-75.616;2023-07-30T04:53:55;100407.81;;;14.17;78.95
74915;BME280;63475;45.140;-75.616;2023-07-30T04:55:58;100397.22;;;14.16;78.95
74915;BME280;63475;45.140;-75.616;2023-07-30T04:58:01;100405.16;;;14.17;78.85
74915;BME280;63475;45.140;-75.616;2023-07-30T05:00:05;100409.78;;;14.15;78.17
74915;BME280;63475;45.140;-75.616;2023-07-30T05:02:08;100409.94;;;14.14;77.99
74915;BME280;63475;45.140;-75.616;2023-07-30T05:04:10;100408.38;;;14.11;77.60
74915;BME280;63475;45.140;-75.616;2023-07-30T05:06:14;100406.84;;;14.09;77.62
74915;BME280;63475;45.140;-75.616;2023-07-30T05:08:16;100412.19;;;14.09;77.44
74915;BME280;63475;45.140;-75.616;2023-07-30T05:10:19;100418.69;;;14.06;77.32
74915;BME280;63475;45.140;-75.616;2023-07-30T05:12:21;100405.63;;;14.02;77.35
74915;BME280;63475;45.140;-75.616;2023-07-30T05:14:24;100408.59;;;13.99;77.46
74915;BME280;63475;45.140;-75.616;2023-07-30T05:16:26;100402.78;;;13.94;77.50
74915;BME280;63475;45.140;-75.616;2023-07-30T05:18:29;100409.97;;;13.93;77.64
74915;BME280;63475;45.140;-75.616;2023-07-30T05:20:32;100408.53;;;13.89;77.35
74915;BME280;63475;45.140;-75.616;2023-07-30T05:22:34;100402.63;;;13.85;77.62
74915;BME280;63475;45.140;-75.616;2023-07-30T05:24:37;100392.28;;;13.81;77.58
74915;BME280;63475;45.140;-75.616;2023-07-30T05:26:39;100399.63;;;13.79;78.53
74915;BME280;63475;45.140;-75.616;2023-07-30T05:28:42;100400.59;;;13.78;77.98
74915;BME280;63475;45.140;-75.616;2023-07-30T05:30:44;100406.09;;;13.76;77.95
74915;BME280;63475;45.140;-75.616;2023-07-30T05:32:47;100408.19;;;13.73;78.56
74915;BME280;63475;45.140;-75.616;2023-07-30T05:34:50;100400.16;;;13.73;78.25
74915;BME280;63475;45.140;-75.616;2023-07-30T05:36:52;100403.22;;;13.68;78.13
74915;BME280;63475;45.140;-75.616;2023-07-30T05:38:55;100394.31;;;13.68;78.38
74915;BME280;63475;45.140;-75.616;2023-07-30T05:40:57;100398.25;;;13.64;78.50
74915;BME280;63475;45.140;-75.616;2023-07-30T05:43:00;100400.25;;;13.62;78.77
74915;BME280;63475;45.140;-75.616;2023-07-30T05:45:03;100408.28;;;13.62;78.93
74915;BME280;63475;45.140;-75.616;2023-07-30T05:47:05;100411.09;;;13.60;78.57
74915;BME280;63475;45.140;-75.616;2023-07-30T05:49:08;100405.16;;;13.57;77.82
74915;BME280;63475;45.140;-75.616;2023-07-30T05:51:11;100398.34;;;13.52;78.20
74915;BME280;63475;45.140;-75.616;2023-07-30T05:53:22;100403.84;;;13.51;77.98
74915;BME280;63475;45.140;-75.616;2023-07-30T05:55:39;100406.91;;;13.46;78.00
74915;BME280;63475;45.140;-75.616;2023-07-30T05:57:41;100409.59;;;13.46;78.30
74915;BME280;63475;45.140;-75.616;2023-07-30T05:59:44;100405.03;;;13.37;78.56
74915;BME280;63475;45.140;-75.616;2023-07-30T06:01:46;100405.88;;;13.38;78.42
74915;BME280;63475;45.140;-75.616;2023-07-30T06:03:49;100406.16;;;13.35;78.74
74915;BME280;63475;45.140;-75.616;2023-07-30T06:05:52;100405.81;;;13.28;79.13
74915;BME280;63475;45.140;-75.616;2023-07-30T06:07:54;100408.25;;;13.31;79.18
74915;BME280;63475;45.140;-75.616;2023-07-30T06:09:57;100407.78;;;13.26;79.34
74915;BME280;63475;45.140;-75.616;2023-07-30T06:12:00;100402.16;;;13.29;80.41
74915;BME280;63475;45.140;-75.616;2023-07-30T06:14:02;100408.75;;;13.25;80.08
74915;BME280;63475;45.140;-75.616;2023-07-30T06:16:05;100413.38;;;13.23;80.00
74915;BME280;63475;45.140;-75.616;2023-07-30T06:18:07;100425.53;;;13.27;79.82
74915;BME280;63475;45.140;-75.616;2023-07-30T06:20:11;100414.50;;;13.20;79.90
74915;BME280;63475;45.140;-75.616;2023-07-30T06:22:13;100410.00;;;13.21;79.85
74915;BME280;63475;45.140;-75.616;2023-07-30T06:24:16;100415.47;;;13.19;79.39
74915;BME280;63475;45.140;-75.616;2023-07-30T06:26:19;100419.00;;;13.20;79.01
74915;BME280;63475;45.140;-75.616;2023-07-30T06:28:21;100422.53;;;13.20;79.14
74915;BME280;63475;45.140;-75.616;2023-07-30T06:30:25;100423.78;;;13.16;79.26
74915;BME280;63475;45.140;-75.616;2023-07-30T06:32:28;100423.19;;;13.13;80.11
74915;BME280;63475;45.140;-75.616;2023-07-30T06:34:31;100420.53;;;13.13;79.88
74915;BME280;63475;45.140;-75.616;2023-07-30T06:36:33;100430.25;;;13.14;80.52
74915;BME280;63475;45.140;-75.616;2023-07-30T06:38:36;100428.56;;;13.13;80.78
74915;BME280;63475;45.140;-75.616;2023-07-30T06:40:39;100427.56;;;13.14;80.56
74915;BME280;63475;45.140;-75.616;2023-07-30T06:42:41;100414.69;;;13.08;80.37
74915;BME280;63475;45.140;-75.616;2023-07-30T06:44:44;100424.44;;;13.09;80.06
74915;BME280;63475;45.140;-75.616;2023-07-30T06:46:46;100422.00;;;13.06;79.30
74915;BME280;63475;45.140;-75.616;2023-07-30T06:48:49;100422.97;;;13.05;78.98
74915;BME280;63475;45.140;-75.616;2023-07-30T06:50:52;100423.25;;;13.02;79.09
74915;BME280;63475;45.140;-75.616;2023-07-30T06:52:54;100421.53;;;13.01;79.34
74915;BME280;63475;45.140;-75.616;2023-07-30T06:54:57;100407.84;;;12.94;79.50
74915;BME280;63475;45.140;-75.616;2023-07-30T06:56:59;100408.94;;;12.92;79.31
74915;BME280;63475;45.140;-75.616;2023-07-30T06:59:02;100407.97;;;12.93;80.23
74915;BME280;63475;45.140;-75.616;2023-07-30T07:01:05;100411.63;;;12.92;82.13
74915;BME280;63475;45.140;-75.616;2023-07-30T07:03:08;100401.88;;;12.91;80.54
74915;BME280;63475;45.140;-75.616;2023-07-30T07:05:11;100411.63;;;12.92;80.96
74915;BME280;63475;45.140;-75.616;2023-07-30T07:07:13;100406.63;;;12.87;81.48
74915;BME280;63475;45.140;-75.616;2023-07-30T07:09:16;100414.50;;;12.88;80.80
74915;BME280;63475;45.140;-75.616;2023-07-30T07:11:19;100420.00;;;12.87;81.53
74915;BME280;63475;45.140;-75.616;2023-07-30T07:13:22;100413.78;;;12.86;81.52
74915;BME280;63475;45.140;-75.616;2023-07-30T07:15:24;100414.78;;;12.85;82.01
74915;BME280;63475;45.140;-75.616;2023-07-30T07:17:28;100417.31;;;12.87;81.76
74915;BME280;63475;45.140;-75.616;2023-07-30T07:19:31;100413.06;;;12.84;81.66
74915;BME280;63475;45.140;-75.616;2023-07-30T07:21:38;100418.66;;;12.81;80.71
74915;BME280;63475;45.140;-75.616;2023-07-30T07:23:41;100419.78;;;12.79;80.56
74915;BME280;63475;45.140;-75.616;2023-07-30T07:25:44;100422.44;;;12.79;80.03
74915;BME280;63475;45.140;-75.616;2023-07-30T07:27:46;100427.19;;;12.75;80.62
74915;BME280;63475;45.140;-75.616;2023-07-30T07:29:49;100416.63;;;12.74;80.20
74915;BME280;63475;45.140;-75.616;2023-07-30T07:31:52;100427.31;;;12.74;80.04
74915;BME280;63475;45.140;-75.616;2023-07-30T07:33:55;100421.41;;;12.70;79.50
74915;BME280;63475;45.140;-75.616;2023-07-30T07:36:07;100420.56;;;12.70;79.37
74915;BME280;63475;45.140;-75.616;2023-07-30T07:38:10;100418.97;;;12.67;79.57
74915;BME280;63475;45.140;-75.616;2023-07-30T07:40:13;100414.00;;;12.63;79.60
74915;BME280;63475;45.140;-75.616;2023-07-30T07:42:15;100410.72;;;12.59;79.88
74915;BME280;63475;45.140;-75.616;2023-07-30T07:44:18;100410.00;;;12.57;79.94
74915;BME280;63475;45.140;-75.616;2023-07-30T07:46:21;100410.25;;;12.54;79.97
74915;BME280;63475;45.140;-75.616;2023-07-30T07:48:24;100402.47;;;12.51;80.96
74915;BME280;63475;45.140;-75.616;2023-07-30T07:50:26;100406.59;;;12.55;82.04
74915;BME280;63475;45.140;-75.616;2023-07-30T07:52:29;100404.88;;;12.54;81.98
74915;BME280;63475;45.140;-75.616;2023-07-30T07:54:31;100406.59;;;12.55;82.15
74915;BME280;63475;45.140;-75.616;2023-07-30T07:56:34;100411.22;;;12.53;81.82
74915;BME280;63475;45.140;-75.616;2023-07-30T07:58:36;100406.72;;;12.53;81.99
74915;BME280;63475;45.140;-75.616;2023-07-30T08:00:39;100416.56;;;12.53;82.53
74915;BME280;63475;45.140;-75.616;2023-07-30T08:02:42;100413.91;;;12.53;82.37
74915;BME280;63475;45.140;-75.616;2023-07-30T08:04:44;100416.69;;;12.51;83.05
74915;BME280;63475;45.140;-75.616;2023-07-30T08:06:47;100412.19;;;12.52;82.82
74915;BME280;63475;45.140;-75.616;2023-07-30T08:08:50;100408.94;;;12.48;82.50
74915;BME280;63475;45.140;-75.616;2023-07-30T08:10:53;100402.88;;;12.46;83.23
74915;BME280;63475;45.140;-75.616;2023-07-30T08:12:56;100409.78;;;12.49;83.33
74915;BME280;63475;45.140;-75.616;2023-07-30T08:14:58;100403.13;;;12.43;83.64
74915;BME280;63475;45.140;-75.616;2023-07-30T08:17:01;100408.34;;;12.45;83.64
74915;BME280;63475;45.140;-75.616;2023-07-30T08:19:04;100410.03;;;12.46;83.81
74915;BME280;63475;45.140;-75.616;2023-07-30T08:21:08;100409.44;;;12.42;83.10
74915;BME280;63475;45.140;-75.616;2023-07-30T08:23:11;100416.63;;;12.42;83.69
74915;BME280;63475;45.140;-75.616;2023-07-30T08:25:13;100421.13;;;12.41;84.34
74915;BME280;63475;45.140;-75.616;2023-07-30T08:27:16;100413.22;;;12.40;83.97
74915;BME280;63475;45.140;-75.616;2023-07-30T08:29:19;100425.84;;;12.38;84.02
74915;BME280;63475;45.140;-75.616;2023-07-30T08:31:22;100407.38;;;12.35;83.71
74915;BME280;63475;45.140;-75.616;2023-07-30T08:33:24;100410.91;;;12.35;83.90
74915;BME280;63475;45.140;-75.616;2023-07-30T08:35:28;100417.22;;;12.34;83.78
74915;BME280;63475;45.140;-75.616;2023-07-30T08:37:31;100396.31;;;12.28;83.84
74915;BME280;63475;45.140;-75.616;2023-07-30T08:39:33;100410.69;;;12.27;83.99
74915;BME280;63475;45.140;-75.616;2023-07-30T08:41:36;100407.88;;;12.29;82.93
74915;BME280;63475;45.140;-75.616;2023-07-30T08:43:39;100405.47;;;12.26;83.58
74915;BME280;63475;45.140;-75.616;2023-07-30T08:45:42;100405.47;;;12.26;83.36
74915;BME280;63475;45.140;-75.616;2023-07-30T08:47:47;100395.50;;;12.28;83.63
74915;BME280;63475;45.140;-75.616;2023-07-30T08:49:50;100401.81;;;12.27;82.99
74915;BME280;63475;45.140;-75.616;2023-07-30T08:51:53;100406.19;;;12.28;82.97
74915;BME280;63475;45.140;-75.616;2023-07-30T08:53:57;100408.88;;;12.28;83.41
74915;BME280;63475;45.140;-75.616;2023-07-30T08:56:00;100407.16;;;12.27;83.83
74915;BME280;63475;45.140;-75.616;2023-07-30T08:58:04;100408.03;;;12.27;83.67
74915;BME280;63475;45.140;-75.616;2023-07-30T09:00:08;100405.34;;;12.27;82.70
74915;BME280;63475;45.140;-75.616;2023-07-30T09:02:21;100406.56;;;12.23;82.19
74915;BME280;63475;45.140;-75.616;2023-07-30T09:04:28;100409.72;;;12.17;83.76
74915;BME280;63475;45.140;-75.616;2023-07-30T09:06:32;100413.25;;;12.17;83.45
74915;BME280;63475;45.140;-75.616;2023-07-30T09:08:35;100412.41;;;12.17;83.26
74915;BME280;63475;45.140;-75.616;2023-07-30T09:10:38;100401.94;;;12.14;83.63
74915;BME280;63475;45.140;-75.616;2023-07-30T09:12:40;100400.13;;;12.14;82.00
74915;BME280;63475;45.140;-75.616;2023-07-30T09:14:43;100398.66;;;12.10;83.29
74915;BME280;63475;45.140;-75.616;2023-07-30T09:16:47;100407.19;;;12.15;81.71
74915;BME280;63475;45.140;-75.616;2023-07-30T09:18:49;100404.63;;;12.14;82.64
74915;BME280;63475;45.140;-75.616;2023-07-30T09:20:52;100393.19;;;12.12;82.98
74915;BME280;63475;45.140;-75.616;2023-07-30T09:22:58;100400.38;;;12.11;82.68
74915;BME280;63475;45.140;-75.616;2023-07-30T09:25:01;100411.78;;;12.13;83.07
74915;BME280;63475;45.140;-75.616;2023-07-30T09:27:04;100398.53;;;12.12;83.13
74915;BME280;63475;45.140;-75.616;2023-07-30T09:29:08;100412.88;;;12.11;83.35
74915;BME280;63475;45.140;-75.616;2023-07-30T09:31:11;100406.81;;;12.09;83.19
74915;BME280;63475;45.140;-75.616;2023-07-30T09:33:23;100414.00;;;11.97;83.77
74915;BME280;63475;45.140;-75.616;2023-07-30T09:35:28;100411.56;;;11.94;84.18
74915;BME280;63475;45.140;-75.616;2023-07-30T09:37:30;100411.44;;;11.96;83.66
74915;BME280;63475;45.140;-75.616;2023-07-30T09:39:33;100403.06;;;11.89;84.87
74915;BME280;63475;45.140;-75.616;2023-07-30T09:41:35;100411.81;;;11.91;83.97
74915;BME280;63475;45.140;-75.616;2023-07-30T09:43:38;100403.19;;;11.88;84.15
74915;BME280;63475;45.140;-75.616;2023-07-30T09:45:45;100406.47;;;11.91;84.02
74915;BME280;63475;45.140;-75.616;2023-07-30T09:47:51;100406.72;;;11.88;83.99
74915;BME280;63475;45.140;-75.616;2023-07-30T09:49:54;100402.22;;;11.89;84.13
74915;BME280;63475;45.140;-75.616;2023-07-30T09:51:57;100406.59;;;11.90;83.49
74915;BME280;63475;45.140;-75.616;2023-07-30T09:54:01;100410.34;;;11.87;83.82
74915;BME280;63475;45.140;-75.616;2023-07-30T09:56:04;100414.00;;;11.86;83.04
74915;BME280;63475;45.140;-75.616;2023-07-30T09:58:10;100414.22;;;11.83;83.64
74915;BME280;63475;45.140;-75.616;2023-07-30T10:00:14;100414.22;;;11.83;83.67
74915;BME280;63475;45.140;-75.616;2023-07-30T10:04:56;100414.50;;;11.80;83.88
74915;BME280;63475;45.140;-75.616;2023-07-30T10:07:04;100422.53;;;11.80;84.25
74915;BME280;63475;45.140;-75.616;2023-07-30T10:09:12;100422.53;;;11.80;84.66
74915;BME280;63475;45.140;-75.616;2023-07-30T10:11:16;100427.13;;;11.78;82.93
74915;BME280;63475;45.140;-75.616;2023-07-30T10:13:19;100424.56;;;11.76;84.32
74915;BME280;63475;45.140;-75.616;2023-07-30T10:15:22;100428.09;;;11.77;84.66
74915;BME280;63475;45.140;-75.616;2023-07-30T10:17:25;100427.13;;;11.78;84.49
74915;BME280;63475;45.140;-75.616;2023-07-30T10:19:28;100432.47;;;11.78;83.84
74915;BME280;63475;45.140;-75.616;2023-07-30T10:21:32;100439.53;;;11.79;83.84
74915;BME280;63475;45.140;-75.616;2023-07-30T10:23:35;100423.72;;;11.76;84.49
74915;BME280;63475;45.140;-75.616;2023-07-30T10:25:48;100435.16;;;11.78;84.31
74915;BME280;63475;45.140;-75.616;2023-07-30T10:27:52;100432.59;;;11.76;84.16
74915;BME280;63475;45.140;-75.616;2023-07-30T10:30:14;100437.81;;;11.78;83.83
74915;BME280;63475;45.140;-75.616;2023-07-30T10:32:17;100431.97;;;11.73;84.37